Briefing drone pour Saint-peray

Rechercher une autre localisation

Conditions de vol :


Nous sommes le : Mardi 16 avril 2024
Il est 22:42 UTC (00:42 LT)

Lever de soleil : 04:26 UTC (06:26 LT)
Coucher de soleil : 18:54 UTC (20:54 LT)

Météo

L'essentiel des conditions de vol

VIGILANCE MÉTÉO FRANCE - Ardèche (07)
Pas de vigilances particulieres
CARTE TEMSI
CARTES DES FRONTS
METAR de LFLU
LFLU 151800Z AUTO 30013G24KT CAVOK 20/06 Q1014

Date d'émission: 15/04/2024
Heure d'émission: 18:00 UTC
Vent: 300° pour 13 KT (24 km/h) rafales pour 24 KT (44 km/h)
Visibilité horizontale: > 10 km
Plafond : Plafond et visibilité OK (CAVOK)
Température: 20 °C
Point de rosée: 6 °C
Humidité: 40%
Pression (QNH): 1014 hPa
Prévision 24h pour Valence (3 km)
Vent : 29° pour 6 KT (21 km/h)
Temperature Maxi: 8 °C
Temperature Min: 8 °C
Humidité : 75%
Condition : Nuageux


WEBCAM POUR SAINT-PERAY

Réglementation

Voler en sécurité

CARTES AERONAUTIQUE 1/500.000
CARTE AZBA (Reseau basse altitude)
CARTES VAC (LFLU)
SUP AIP




Chargement des AIP...
NOTAM (SAINT-PERAY + Terrain à proximité / FIR )




Chargement des NOTAMS...
CONTACT PREFECTURE 07
Ardèche (07) : [email protected]


Avertissement : Les données mises à disposition sont indicatives. Oxygène Drone ne pourra être tenu responsable de dégâts causés aux biens et aux personnes.